sensor_id;sensor_type;location;lat;lon;timestamp;P1;durP1;ratioP1;P2;durP2;ratioP2
19016;SDS011;9641;51.494;6.670;2024-01-25T00:00:52;37.23;;;6.73;;
19016;SDS011;9641;51.494;6.670;2024-01-25T00:03:18;39.83;;;7.47;;
19016;SDS011;9641;51.494;6.670;2024-01-25T00:05:46;30.67;;;6.43;;
19016;SDS011;9641;51.494;6.670;2024-01-25T00:08:13;33.07;;;6.07;;
19016;SDS011;9641;51.494;6.670;2024-01-25T00:10:40;29.17;;;6.13;;
19016;SDS011;9641;51.494;6.670;2024-01-25T00:13:07;38.57;;;5.90;;
19016;SDS011;9641;51.494;6.670;2024-01-25T00:15:34;40.97;;;6.17;;
19016;SDS011;9641;51.494;6.670;2024-01-25T00:18:04;35.43;;;6.83;;
19016;SDS011;9641;51.494;6.670;2024-01-25T00:20:31;34.63;;;6.53;;
19016;SDS011;9641;51.494;6.670;2024-01-25T00:22:59;41.77;;;6.83;;
19016;SDS011;9641;51.494;6.670;2024-01-25T00:25:26;40.50;;;6.93;;
19016;SDS011;9641;51.494;6.670;2024-01-25T00:27:53;41.10;;;7.90;;
19016;SDS011;9641;51.494;6.670;2024-01-25T00:30:19;38.07;;;6.80;;
19016;SDS011;9641;51.494;6.670;2024-01-25T00:32:46;45.70;;;7.83;;
19016;SDS011;9641;51.494;6.670;2024-01-25T00:35:14;43.30;;;6.10;;
19016;SDS011;9641;51.494;6.670;2024-01-25T00:37:41;42.07;;;6.43;;
19016;SDS011;9641;51.494;6.670;2024-01-25T00:40:10;32.07;;;5.87;;
19016;SDS011;9641;51.494;6.670;2024-01-25T00:42:40;37.53;;;6.00;;
19016;SDS011;9641;51.494;6.670;2024-01-25T00:45:09;44.13;;;6.03;;
19016;SDS011;9641;51.494;6.670;2024-01-25T00:47:37;31.83;;;5.30;;
19016;SDS011;9641;51.494;6.670;2024-01-25T00:50:05;36.37;;;6.03;;
19016;SDS011;9641;51.494;6.670;2024-01-25T00:52:33;41.77;;;7.73;;
19016;SDS011;9641;51.494;6.670;2024-01-25T00:55:01;36.60;;;6.40;;
19016;SDS011;9641;51.494;6.670;2024-01-25T00:57:30;44.60;;;6.03;;
19016;SDS011;9641;51.494;6.670;2024-01-25T00:59:58;26.10;;;5.20;;
19016;SDS011;9641;51.494;6.670;2024-01-25T01:02:25;35.03;;;7.30;;
19016;SDS011;9641;51.494;6.670;2024-01-25T01:04:56;41.90;;;6.87;;
19016;SDS011;9641;51.494;6.670;2024-01-25T01:07:24;42.17;;;7.93;;
19016;SDS011;9641;51.494;6.670;2024-01-25T01:09:51;32.00;;;6.07;;
19016;SDS011;9641;51.494;6.670;2024-01-25T01:12:18;39.33;;;6.40;;
19016;SDS011;9641;51.494;6.670;2024-01-25T01:14:46;42.20;;;7.27;;
19016;SDS011;9641;51.494;6.670;2024-01-25T01:17:14;38.50;;;6.90;;
19016;SDS011;9641;51.494;6.670;2024-01-25T01:19:41;30.33;;;5.80;;
19016;SDS011;9641;51.494;6.670;2024-01-25T01:22:08;40.53;;;6.27;;
19016;SDS011;9641;51.494;6.670;2024-01-25T01:24:35;30.33;;;6.37;;
19016;SDS011;9641;51.494;6.670;2024-01-25T01:27:01;44.63;;;6.17;;
19016;SDS011;9641;51.494;6.670;2024-01-25T01:29:29;39.80;;;6.77;;
19016;SDS011;9641;51.494;6.670;2024-01-25T01:31:57;33.70;;;6.60;;
19016;SDS011;9641;51.494;6.670;2024-01-25T01:34:24;36.33;;;6.53;;
19016;SDS011;9641;51.494;6.670;2024-01-25T01:36:50;35.03;;;6.07;;
19016;SDS011;9641;51.494;6.670;2024-01-25T01:39:17;23.03;;;4.90;;
19016;SDS011;9641;51.494;6.670;2024-01-25T01:41:46;30.67;;;5.57;;
19016;SDS011;9641;51.494;6.670;2024-01-25T01:44:13;46.67;;;8.27;;
19016;SDS011;9641;51.494;6.670;2024-01-25T01:46:40;45.47;;;7.00;;
19016;SDS011;9641;51.494;6.670;2024-01-25T01:49:11;32.27;;;6.47;;
19016;SDS011;9641;51.494;6.670;2024-01-25T01:51:38;33.97;;;5.80;;
19016;SDS011;9641;51.494;6.670;2024-01-25T01:54:07;33.03;;;6.23;;
19016;SDS011;9641;51.494;6.670;2024-01-25T01:56:34;35.87;;;6.23;;
19016;SDS011;9641;51.494;6.670;2024-01-25T01:59:01;32.70;;;6.13;;
19016;SDS011;9641;51.494;6.670;2024-01-25T02:01:30;42.87;;;6.30;;
19016;SDS011;9641;51.494;6.670;2024-01-25T02:03:58;48.40;;;6.47;;
19016;SDS011;9641;51.494;6.670;2024-01-25T02:06:26;34.23;;;6.17;;
19016;SDS011;9641;51.494;6.670;2024-01-25T02:08:53;42.80;;;6.10;;
19016;SDS011;9641;51.494;6.670;2024-01-25T02:11:23;30.70;;;5.43;;
19016;SDS011;9641;51.494;6.670;2024-01-25T02:13:50;41.00;;;6.50;;
19016;SDS011;9641;51.494;6.670;2024-01-25T02:16:17;40.60;;;6.93;;
19016;SDS011;9641;51.494;6.670;2024-01-25T02:18:45;38.53;;;6.17;;
19016;SDS011;9641;51.494;6.670;2024-01-25T02:21:11;41.63;;;5.50;;
19016;SDS011;9641;51.494;6.670;2024-01-25T02:23:40;42.70;;;6.70;;
19016;SDS011;9641;51.494;6.670;2024-01-25T02:26:07;37.47;;;6.90;;
19016;SDS011;9641;51.494;6.670;2024-01-25T02:28:33;37.40;;;6.70;;
19016;SDS011;9641;51.494;6.670;2024-01-25T02:31:01;34.03;;;6.07;;
19016;SDS011;9641;51.494;6.670;2024-01-25T02:33:28;37.17;;;5.77;;
19016;SDS011;9641;51.494;6.670;2024-01-25T02:35:55;41.40;;;6.10;;
19016;SDS011;9641;51.494;6.670;2024-01-25T02:38:22;39.37;;;5.13;;
19016;SDS011;9641;51.494;6.670;2024-01-25T02:40:50;40.97;;;6.17;;
19016;SDS011;9641;51.494;6.670;2024-01-25T02:43:18;33.90;;;5.90;;
19016;SDS011;9641;51.494;6.670;2024-01-25T02:45:45;27.30;;;6.33;;
19016;SDS011;9641;51.494;6.670;2024-01-25T02:48:13;38.93;;;6.83;;
19016;SDS011;9641;51.494;6.670;2024-01-25T02:50:40;36.00;;;6.03;;
19016;SDS011;9641;51.494;6.670;2024-01-25T02:53:07;40.47;;;6.63;;
19016;SDS011;9641;51.494;6.670;2024-01-25T02:55:34;31.93;;;5.50;;
19016;SDS011;9641;51.494;6.670;2024-01-25T02:58:02;35.83;;;6.13;;
19016;SDS011;9641;51.494;6.670;2024-01-25T03:00:29;42.10;;;6.73;;
19016;SDS011;9641;51.494;6.670;2024-01-25T03:02:56;40.27;;;7.40;;
19016;SDS011;9641;51.494;6.670;2024-01-25T03:05:23;32.07;;;6.87;;
19016;SDS011;9641;51.494;6.670;2024-01-25T03:07:49;36.30;;;5.80;;
19016;SDS011;9641;51.494;6.670;2024-01-25T03:10:16;31.63;;;6.07;;
19016;SDS011;9641;51.494;6.670;2024-01-25T03:12:43;40.20;;;6.30;;
19016;SDS011;9641;51.494;6.670;2024-01-25T03:15:12;33.40;;;6.17;;
19016;SDS011;9641;51.494;6.670;2024-01-25T03:17:40;31.43;;;6.13;;
19016;SDS011;9641;51.494;6.670;2024-01-25T03:20:07;31.07;;;5.90;;
19016;SDS011;9641;51.494;6.670;2024-01-25T03:22:34;45.23;;;6.47;;
19016;SDS011;9641;51.494;6.670;2024-01-25T03:25:01;42.13;;;5.73;;
19016;SDS011;9641;51.494;6.670;2024-01-25T03:27:28;36.50;;;5.83;;
19016;SDS011;9641;51.494;6.670;2024-01-25T03:29:55;36.23;;;6.33;;
19016;SDS011;9641;51.494;6.670;2024-01-25T03:32:24;41.67;;;7.37;;
19016;SDS011;9641;51.494;6.670;2024-01-25T03:34:50;36.87;;;5.70;;
19016;SDS011;9641;51.494;6.670;2024-01-25T03:37:17;43.83;;;6.67;;
19016;SDS011;9641;51.494;6.670;2024-01-25T03:39:44;35.27;;;5.83;;
19016;SDS011;9641;51.494;6.670;2024-01-25T03:42:11;47.87;;;7.67;;
19016;SDS011;9641;51.494;6.670;2024-01-25T03:44:38;41.83;;;6.87;;
19016;SDS011;9641;51.494;6.670;2024-01-25T03:47:07;31.30;;;6.23;;
19016;SDS011;9641;51.494;6.670;2024-01-25T03:49:35;45.17;;;6.13;;
19016;SDS011;9641;51.494;6.670;2024-01-25T03:52:02;29.60;;;5.70;;
19016;SDS011;9641;51.494;6.670;2024-01-25T03:54:29;43.63;;;6.83;;
19016;SDS011;9641;51.494;6.670;2024-01-25T03:56:57;35.90;;;5.90;;
19016;SDS011;9641;51.494;6.670;2024-01-25T03:59:24;39.63;;;6.90;;
19016;SDS011;9641;51.494;6.670;2024-01-25T04:01:51;41.07;;;6.23;;
19016;SDS011;9641;51.494;6.670;2024-01-25T04:04:17;44.80;;;7.20;;
19016;SDS011;9641;51.494;6.670;2024-01-25T04:06:46;33.40;;;7.30;;
19016;SDS011;9641;51.494;6.670;2024-01-25T04:09:13;36.43;;;5.77;;
19016;SDS011;9641;51.494;6.670;2024-01-25T04:11:40;33.27;;;5.43;;
19016;SDS011;9641;51.494;6.670;2024-01-25T04:14:07;39.63;;;6.67;;
19016;SDS011;9641;51.494;6.670;2024-01-25T04:16:37;39.97;;;5.77;;
19016;SDS011;9641;51.494;6.670;2024-01-25T04:19:04;37.10;;;6.17;;
19016;SDS011;9641;51.494;6.670;2024-01-25T04:21:32;34.73;;;5.80;;
19016;SDS011;9641;51.494;6.670;2024-01-25T04:24:00;35.87;;;6.20;;
19016;SDS011;9641;51.494;6.670;2024-01-25T04:26:26;32.60;;;5.33;;
19016;SDS011;9641;51.494;6.670;2024-01-25T04:28:53;34.47;;;6.77;;
19016;SDS011;9641;51.494;6.670;2024-01-25T04:31:20;42.07;;;6.37;;
19016;SDS011;9641;51.494;6.670;2024-01-25T04:33:47;42.53;;;6.70;;
19016;SDS011;9641;51.494;6.670;2024-01-25T04:36:14;36.70;;;5.87;;
19016;SDS011;9641;51.494;6.670;2024-01-25T04:38:41;33.60;;;5.70;;
19016;SDS011;9641;51.494;6.670;2024-01-25T04:41:09;36.23;;;5.70;;
19016;SDS011;9641;51.494;6.670;2024-01-25T04:43:36;30.67;;;5.70;;
19016;SDS011;9641;51.494;6.670;2024-01-25T04:46:03;36.50;;;6.13;;
19016;SDS011;9641;51.494;6.670;2024-01-25T04:48:30;40.13;;;6.63;;
19016;SDS011;9641;51.494;6.670;2024-01-25T04:50:57;35.97;;;5.77;;
19016;SDS011;9641;51.494;6.670;2024-01-25T04:53:24;29.13;;;5.87;;
19016;SDS011;9641;51.494;6.670;2024-01-25T04:55:51;37.17;;;6.17;;
19016;SDS011;9641;51.494;6.670;2024-01-25T04:58:21;40.10;;;6.90;;
19016;SDS011;9641;51.494;6.670;2024-01-25T05:00:48;29.40;;;6.00;;
19016;SDS011;9641;51.494;6.670;2024-01-25T05:03:15;35.27;;;5.97;;
19016;SDS011;9641;51.494;6.670;2024-01-25T05:05:42;27.73;;;5.73;;
19016;SDS011;9641;51.494;6.670;2024-01-25T05:08:09;31.17;;;5.67;;
19016;SDS011;9641;51.494;6.670;2024-01-25T05:10:39;33.13;;;4.97;;
19016;SDS011;9641;51.494;6.670;2024-01-25T05:13:09;32.47;;;5.63;;
19016;SDS011;9641;51.494;6.670;2024-01-25T05:15:38;29.00;;;5.33;;
19016;SDS011;9641;51.494;6.670;2024-01-25T05:18:05;26.50;;;4.77;;
19016;SDS011;9641;51.494;6.670;2024-01-25T05:20:32;34.90;;;6.33;;
19016;SDS011;9641;51.494;6.670;2024-01-25T05:23:01;31.97;;;5.83;;
19016;SDS011;9641;51.494;6.670;2024-01-25T05:25:29;42.03;;;6.17;;
19016;SDS011;9641;51.494;6.670;2024-01-25T05:27:56;27.20;;;5.57;;
19016;SDS011;9641;51.494;6.670;2024-01-25T05:30:23;36.87;;;6.27;;
19016;SDS011;9641;51.494;6.670;2024-01-25T05:32:53;36.63;;;5.67;;
19016;SDS011;9641;51.494;6.670;2024-01-25T05:35:19;33.70;;;6.43;;
19016;SDS011;9641;51.494;6.670;2024-01-25T05:37:46;33.60;;;6.23;;
19016;SDS011;9641;51.494;6.670;2024-01-25T05:40:14;37.63;;;6.37;;
19016;SDS011;9641;51.494;6.670;2024-01-25T05:42:40;48.10;;;5.93;;
19016;SDS011;9641;51.494;6.670;2024-01-25T05:45:07;37.47;;;6.10;;
19016;SDS011;9641;51.494;6.670;2024-01-25T05:47:35;44.73;;;7.17;;
19016;SDS011;9641;51.494;6.670;2024-01-25T05:50:03;41.07;;;6.67;;
19016;SDS011;9641;51.494;6.670;2024-01-25T05:52:30;43.37;;;6.47;;
19016;SDS011;9641;51.494;6.670;2024-01-25T05:54:58;41.67;;;6.70;;
19016;SDS011;9641;51.494;6.670;2024-01-25T05:57:25;37.90;;;5.97;;
19016;SDS011;9641;51.494;6.670;2024-01-25T05:59:53;39.87;;;6.80;;
19016;SDS011;9641;51.494;6.670;2024-01-25T06:02:20;33.63;;;5.67;;
19016;SDS011;9641;51.494;6.670;2024-01-25T06:04:46;46.17;;;6.67;;
19016;SDS011;9641;51.494;6.670;2024-01-25T06:07:14;45.77;;;6.93;;
19016;SDS011;9641;51.494;6.670;2024-01-25T06:09:41;53.40;;;6.77;;
19016;SDS011;9641;51.494;6.670;2024-01-25T06:12:08;40.10;;;6.03;;
19016;SDS011;9641;51.494;6.670;2024-01-25T06:14:35;47.30;;;7.50;;
19016;SDS011;9641;51.494;6.670;2024-01-25T06:17:04;33.10;;;6.20;;
19016;SDS011;9641;51.494;6.670;2024-01-25T06:19:32;28.70;;;7.23;;
19016;SDS011;9641;51.494;6.670;2024-01-25T06:21:59;44.17;;;7.10;;
19016;SDS011;9641;51.494;6.670;2024-01-25T06:24:27;32.97;;;6.57;;
19016;SDS011;9641;51.494;6.670;2024-01-25T06:26:54;27.00;;;6.43;;
19016;SDS011;9641;51.494;6.670;2024-01-25T06:29:22;58.07;;;7.40;;
19016;SDS011;9641;51.494;6.670;2024-01-25T06:31:48;41.23;;;6.83;;
19016;SDS011;9641;51.494;6.670;2024-01-25T06:34:16;42.77;;;8.30;;
19016;SDS011;9641;51.494;6.670;2024-01-25T06:36:43;35.80;;;6.57;;
19016;SDS011;9641;51.494;6.670;2024-01-25T06:39:10;38.03;;;6.33;;
19016;SDS011;9641;51.494;6.670;2024-01-25T06:41:40;46.33;;;6.93;;
19016;SDS011;9641;51.494;6.670;2024-01-25T06:44:07;35.00;;;7.43;;
19016;SDS011;9641;51.494;6.670;2024-01-25T06:46:34;36.30;;;6.90;;
19016;SDS011;9641;51.494;6.670;2024-01-25T06:49:01;39.43;;;7.63;;
19016;SDS011;9641;51.494;6.670;2024-01-25T06:51:28;44.50;;;7.73;;
19016;SDS011;9641;51.494;6.670;2024-01-25T06:53:55;43.80;;;7.30;;
19016;SDS011;9641;51.494;6.670;2024-01-25T06:56:22;42.70;;;6.97;;
19016;SDS011;9641;51.494;6.670;2024-01-25T06:58:50;40.50;;;6.63;;
19016;SDS011;9641;51.494;6.670;2024-01-25T07:01:19;48.87;;;7.10;;
19016;SDS011;9641;51.494;6.670;2024-01-25T07:03:47;33.07;;;6.70;;
19016;SDS011;9641;51.494;6.670;2024-01-25T07:06:15;29.07;;;6.63;;
19016;SDS011;9641;51.494;6.670;2024-01-25T07:08:43;39.67;;;6.47;;
19016;SDS011;9641;51.494;6.670;2024-01-25T07:11:10;53.33;;;7.10;;
19016;SDS011;9641;51.494;6.670;2024-01-25T07:13:37;31.37;;;5.47;;
19016;SDS011;9641;51.494;6.670;2024-01-25T07:16:06;37.07;;;7.80;;
19016;SDS011;9641;51.494;6.670;2024-01-25T07:18:33;40.53;;;6.97;;
19016;SDS011;9641;51.494;6.670;2024-01-25T07:21:00;40.10;;;7.37;;
19016;SDS011;9641;51.494;6.670;2024-01-25T07:23:28;46.13;;;7.67;;
19016;SDS011;9641;51.494;6.670;2024-01-25T07:25:56;27.93;;;6.67;;
19016;SDS011;9641;51.494;6.670;2024-01-25T07:28:23;35.07;;;7.57;;
19016;SDS011;9641;51.494;6.670;2024-01-25T07:30:50;45.90;;;7.33;;
19016;SDS011;9641;51.494;6.670;2024-01-25T07:33:18;40.57;;;6.47;;
19016;SDS011;9641;51.494;6.670;2024-01-25T07:35:45;50.20;;;8.23;;
19016;SDS011;9641;51.494;6.670;2024-01-25T07:38:13;44.10;;;7.03;;
19016;SDS011;9641;51.494;6.670;2024-01-25T07:40:40;47.00;;;7.03;;
19016;SDS011;9641;51.494;6.670;2024-01-25T07:43:06;41.13;;;8.53;;
19016;SDS011;9641;51.494;6.670;2024-01-25T07:45:33;34.63;;;7.20;;
19016;SDS011;9641;51.494;6.670;2024-01-25T07:48:00;42.57;;;7.70;;
19016;SDS011;9641;51.494;6.670;2024-01-25T07:50:28;50.60;;;9.03;;
19016;SDS011;9641;51.494;6.670;2024-01-25T07:52:55;42.23;;;7.77;;
19016;SDS011;9641;51.494;6.670;2024-01-25T07:55:22;42.13;;;7.40;;
19016;SDS011;9641;51.494;6.670;2024-01-25T07:57:49;42.43;;;8.07;;
19016;SDS011;9641;51.494;6.670;2024-01-25T08:00:16;50.83;;;7.97;;
19016;SDS011;9641;51.494;6.670;2024-01-25T08:02:43;41.97;;;7.83;;
19016;SDS011;9641;51.494;6.670;2024-01-25T08:05:10;48.47;;;9.57;;
19016;SDS011;9641;51.494;6.670;2024-01-25T08:07:39;39.50;;;8.47;;
19016;SDS011;9641;51.494;6.670;2024-01-25T08:10:06;50.30;;;8.03;;
19016;SDS011;9641;51.494;6.670;2024-01-25T08:12:34;44.53;;;8.13;;
19016;SDS011;9641;51.494;6.670;2024-01-25T08:15:01;33.63;;;7.73;;
19016;SDS011;9641;51.494;6.670;2024-01-25T08:17:28;42.20;;;8.70;;
19016;SDS011;9641;51.494;6.670;2024-01-25T08:19:55;44.53;;;8.17;;
19016;SDS011;9641;51.494;6.670;2024-01-25T08:22:21;56.20;;;10.57;;
19016;SDS011;9641;51.494;6.670;2024-01-25T08:24:50;45.07;;;8.80;;
19016;SDS011;9641;51.494;6.670;2024-01-25T08:27:17;63.63;;;9.57;;
19016;SDS011;9641;51.494;6.670;2024-01-25T08:29:44;37.87;;;9.10;;
19016;SDS011;9641;51.494;6.670;2024-01-25T08:32:11;43.40;;;8.83;;
19016;SDS011;9641;51.494;6.670;2024-01-25T08:34:38;59.43;;;9.83;;
19016;SDS011;9641;51.494;6.670;2024-01-25T08:37:05;50.33;;;10.77;;
19016;SDS011;9641;51.494;6.670;2024-01-25T08:39:32;54.47;;;11.00;;
19016;SDS011;9641;51.494;6.670;2024-01-25T08:42:00;45.83;;;9.60;;
19016;SDS011;9641;51.494;6.670;2024-01-25T08:44:30;54.13;;;11.03;;
19016;SDS011;9641;51.494;6.670;2024-01-25T08:46:57;51.83;;;10.23;;
19016;SDS011;9641;51.494;6.670;2024-01-25T08:49:24;54.10;;;10.23;;
19016;SDS011;9641;51.494;6.670;2024-01-25T08:51:51;41.97;;;10.37;;
19016;SDS011;9641;51.494;6.670;2024-01-25T08:54:18;46.47;;;10.70;;
19016;SDS011;9641;51.494;6.670;2024-01-25T08:56:45;40.47;;;9.33;;
19016;SDS011;9641;51.494;6.670;2024-01-25T08:59:13;54.67;;;10.87;;
19016;SDS011;9641;51.494;6.670;2024-01-25T09:01:40;49.07;;;9.57;;
19016;SDS011;9641;51.494;6.670;2024-01-25T09:04:10;59.73;;;10.73;;
19016;SDS011;9641;51.494;6.670;2024-01-25T09:06:37;46.93;;;10.87;;
19016;SDS011;9641;51.494;6.670;2024-01-25T09:09:04;51.27;;;12.60;;
19016;SDS011;9641;51.494;6.670;2024-01-25T09:11:31;52.20;;;11.13;;
19016;SDS011;9641;51.494;6.670;2024-01-25T09:13:58;43.70;;;10.23;;
19016;SDS011;9641;51.494;6.670;2024-01-25T09:16:27;51.10;;;10.57;;
19016;SDS011;9641;51.494;6.670;2024-01-25T09:18:54;55.83;;;11.17;;
19016;SDS011;9641;51.494;6.670;2024-01-25T09:21:21;50.93;;;11.07;;
19016;SDS011;9641;51.494;6.670;2024-01-25T09:23:48;55.23;;;11.23;;
19016;SDS011;9641;51.494;6.670;2024-01-25T09:26:14;53.33;;;10.47;;
19016;SDS011;9641;51.494;6.670;2024-01-25T09:28:42;62.23;;;10.57;;
19016;SDS011;9641;51.494;6.670;2024-01-25T09:31:09;47.10;;;11.40;;
19016;SDS011;9641;51.494;6.670;2024-01-25T09:33:37;46.67;;;10.67;;
19016;SDS011;9641;51.494;6.670;2024-01-25T09:36:05;45.97;;;11.17;;
19016;SDS011;9641;51.494;6.670;2024-01-25T09:38:32;51.70;;;10.33;;
19016;SDS011;9641;51.494;6.670;2024-01-25T09:40:59;53.27;;;11.77;;
19016;SDS011;9641;51.494;6.670;2024-01-25T09:43:27;44.43;;;11.03;;
19016;SDS011;9641;51.494;6.670;2024-01-25T09:45:54;50.60;;;12.77;;
19016;SDS011;9641;51.494;6.670;2024-01-25T09:48:21;55.93;;;13.03;;
19016;SDS011;9641;51.494;6.670;2024-01-25T09:50:50;51.90;;;11.57;;
19016;SDS011;9641;51.494;6.670;2024-01-25T09:53:20;52.47;;;12.47;;
19016;SDS011;9641;51.494;6.670;2024-01-25T09:55:51;56.33;;;13.20;;
19016;SDS011;9641;51.494;6.670;2024-01-25T09:58:22;46.70;;;12.23;;
19016;SDS011;9641;51.494;6.670;2024-01-25T10:00:53;50.83;;;13.50;;
19016;SDS011;9641;51.494;6.670;2024-01-25T10:03:21;52.87;;;11.97;;
19016;SDS011;9641;51.494;6.670;2024-01-25T10:05:48;48.53;;;12.20;;
19016;SDS011;9641;51.494;6.670;2024-01-25T10:08:16;52.17;;;13.23;;
19016;SDS011;9641;51.494;6.670;2024-01-25T10:10:45;56.73;;;14.03;;
19016;SDS011;9641;51.494;6.670;2024-01-25T10:13:12;48.33;;;12.80;;
19016;SDS011;9641;51.494;6.670;2024-01-25T10:15:39;51.63;;;13.50;;
19016;SDS011;9641;51.494;6.670;2024-01-25T10:18:09;63.53;;;14.07;;
19016;SDS011;9641;51.494;6.670;2024-01-25T10:20:38;51.03;;;14.10;;
19016;SDS011;9641;51.494;6.670;2024-01-25T10:23:06;50.63;;;14.77;;
19016;SDS011;9641;51.494;6.670;2024-01-25T10:25:35;55.67;;;15.67;;
19016;SDS011;9641;51.494;6.670;2024-01-25T10:28:03;48.33;;;14.23;;
19016;SDS011;9641;51.494;6.670;2024-01-25T10:30:31;55.50;;;15.00;;
19016;SDS011;9641;51.494;6.670;2024-01-25T10:32:59;58.13;;;16.30;;
19016;SDS011;9641;51.494;6.670;2024-01-25T10:35:27;52.80;;;15.53;;
19016;SDS011;9641;51.494;6.670;2024-01-25T10:37:54;48.77;;;14.67;;
19016;SDS011;9641;51.494;6.670;2024-01-25T10:40:22;59.23;;;16.10;;
19016;SDS011;9641;51.494;6.670;2024-01-25T10:42:51;57.33;;;17.57;;
19016;SDS011;9641;51.494;6.670;2024-01-25T10:45:18;53.07;;;18.17;;
19016;SDS011;9641;51.494;6.670;2024-01-25T10:47:50;51.77;;;18.13;;
19016;SDS011;9641;51.494;6.670;2024-01-25T10:50:18;58.47;;;17.93;;
19016;SDS011;9641;51.494;6.670;2024-01-25T10:52:45;50.03;;;14.93;;
19016;SDS011;9641;51.494;6.670;2024-01-25T10:55:13;42.50;;;14.87;;
19016;SDS011;9641;51.494;6.670;2024-01-25T10:57:43;51.13;;;14.80;;
19016;SDS011;9641;51.494;6.670;2024-01-25T11:00:14;51.27;;;14.73;;
19016;SDS011;9641;51.494;6.670;2024-01-25T11:02:42;52.87;;;15.40;;
19016;SDS011;9641;51.494;6.670;2024-01-25T11:05:11;48.70;;;14.27;;
19016;SDS011;9641;51.494;6.670;2024-01-25T11:07:42;36.90;;;12.93;;
19016;SDS011;9641;51.494;6.670;2024-01-25T11:10:14;40.07;;;12.70;;
19016;SDS011;9641;51.494;6.670;2024-01-25T11:12:49;50.67;;;15.47;;
19016;SDS011;9641;51.494;6.670;2024-01-25T11:15:22;51.27;;;14.97;;
19016;SDS011;9641;51.494;6.670;2024-01-25T11:17:50;49.00;;;16.20;;
19016;SDS011;9641;51.494;6.670;2024-01-25T11:20:22;45.57;;;16.03;;
19016;SDS011;9641;51.494;6.670;2024-01-25T11:22:55;44.03;;;15.63;;
19016;SDS011;9641;51.494;6.670;2024-01-25T11:25:23;57.13;;;17.47;;
19016;SDS011;9641;51.494;6.670;2024-01-25T11:27:50;44.17;;;16.07;;
19016;SDS011;9641;51.494;6.670;2024-01-25T11:30:17;42.23;;;15.53;;
19016;SDS011;9641;51.494;6.670;2024-01-25T11:32:47;48.23;;;15.67;;
19016;SDS011;9641;51.494;6.670;2024-01-25T11:35:17;50.47;;;16.07;;
19016;SDS011;9641;51.494;6.670;2024-01-25T11:37:44;42.07;;;15.60;;
19016;SDS011;9641;51.494;6.670;2024-01-25T11:40:12;46.23;;;16.00;;
19016;SDS011;9641;51.494;6.670;2024-01-25T11:42:40;47.07;;;16.90;;
19016;SDS011;9641;51.494;6.670;2024-01-25T11:45:09;63.67;;;18.17;;
19016;SDS011;9641;51.494;6.670;2024-01-25T11:47:37;78.77;;;22.53;;
19016;SDS011;9641;51.494;6.670;2024-01-25T11:50:07;38.87;;;15.70;;
19016;SDS011;9641;51.494;6.670;2024-01-25T11:52:35;48.33;;;15.80;;
19016;SDS011;9641;51.494;6.670;2024-01-25T11:55:04;53.83;;;17.20;;
19016;SDS011;9641;51.494;6.670;2024-01-25T11:57:32;47.20;;;15.33;;
19016;SDS011;9641;51.494;6.670;2024-01-25T12:00:03;47.97;;;15.93;;
19016;SDS011;9641;51.494;6.670;2024-01-25T12:02:33;44.00;;;15.87;;
19016;SDS011;9641;51.494;6.670;2024-01-25T12:05:01;52.13;;;17.60;;
19016;SDS011;9641;51.494;6.670;2024-01-25T12:07:30;48.20;;;16.63;;
19016;SDS011;9641;51.494;6.670;2024-01-25T12:09:58;57.43;;;17.53;;
19016;SDS011;9641;51.494;6.670;2024-01-25T12:12:26;50.57;;;17.27;;
19016;SDS011;9641;51.494;6.670;2024-01-25T12:14:57;60.93;;;16.27;;
19016;SDS011;9641;51.494;6.670;2024-01-25T12:17:26;56.73;;;17.67;;
19016;SDS011;9641;51.494;6.670;2024-01-25T12:19:55;56.67;;;16.17;;
19016;SDS011;9641;51.494;6.670;2024-01-25T12:22:22;46.63;;;15.87;;
19016;SDS011;9641;51.494;6.670;2024-01-25T12:24:52;52.60;;;15.13;;
19016;SDS011;9641;51.494;6.670;2024-01-25T12:27:20;53.30;;;15.87;;
19016;SDS011;9641;51.494;6.670;2024-01-25T12:29:47;51.77;;;16.27;;
19016;SDS011;9641;51.494;6.670;2024-01-25T12:32:15;55.83;;;16.93;;
19016;SDS011;9641;51.494;6.670;2024-01-25T12:34:52;48.83;;;17.33;;
19016;SDS011;9641;51.494;6.670;2024-01-25T12:37:20;64.33;;;18.80;;
19016;SDS011;9641;51.494;6.670;2024-01-25T12:39:47;54.60;;;16.60;;
19016;SDS011;9641;51.494;6.670;2024-01-25T12:42:15;52.57;;;15.40;;
19016;SDS011;9641;51.494;6.670;2024-01-25T12:44:42;60.23;;;16.63;;
19016;SDS011;9641;51.494;6.670;2024-01-25T12:47:10;42.73;;;15.60;;
19016;SDS011;9641;51.494;6.670;2024-01-25T12:49:39;55.77;;;15.10;;
19016;SDS011;9641;51.494;6.670;2024-01-25T12:52:06;52.17;;;15.03;;
19016;SDS011;9641;51.494;6.670;2024-01-25T12:54:34;52.03;;;13.90;;
19016;SDS011;9641;51.494;6.670;2024-01-25T12:57:02;44.43;;;13.87;;
19016;SDS011;9641;51.494;6.670;2024-01-25T12:59:31;46.87;;;13.67;;
19016;SDS011;9641;51.494;6.670;2024-01-25T13:01:58;46.30;;;12.60;;
19016;SDS011;9641;51.494;6.670;2024-01-25T13:04:25;42.60;;;13.10;;
19016;SDS011;9641;51.494;6.670;2024-01-25T13:06:53;54.17;;;13.27;;
19016;SDS011;9641;51.494;6.670;2024-01-25T13:09:21;49.30;;;13.50;;
19016;SDS011;9641;51.494;6.670;2024-01-25T13:11:48;50.23;;;15.43;;
19016;SDS011;9641;51.494;6.670;2024-01-25T13:14:17;45.47;;;14.17;;
19016;SDS011;9641;51.494;6.670;2024-01-25T13:16:45;53.40;;;15.07;;
19016;SDS011;9641;51.494;6.670;2024-01-25T13:19:13;47.33;;;14.43;;
19016;SDS011;9641;51.494;6.670;2024-01-25T13:21:40;48.03;;;14.27;;
19016;SDS011;9641;51.494;6.670;2024-01-25T13:24:07;54.17;;;14.73;;
19016;SDS011;9641;51.494;6.670;2024-01-25T13:26:35;53.10;;;14.00;;
19016;SDS011;9641;51.494;6.670;2024-01-25T13:29:03;46.40;;;13.87;;
19016;SDS011;9641;51.494;6.670;2024-01-25T13:31:30;50.10;;;14.03;;
19016;SDS011;9641;51.494;6.670;2024-01-25T13:33:58;43.73;;;15.50;;
19016;SDS011;9641;51.494;6.670;2024-01-25T13:36:25;47.20;;;14.47;;
19016;SDS011;9641;51.494;6.670;2024-01-25T13:38:53;44.23;;;14.17;;
19016;SDS011;9641;51.494;6.670;2024-01-25T13:41:20;44.87;;;13.73;;
19016;SDS011;9641;51.494;6.670;2024-01-25T13:43:46;46.17;;;13.70;;
19016;SDS011;9641;51.494;6.670;2024-01-25T13:46:14;60.47;;;15.70;;
19016;SDS011;9641;51.494;6.670;2024-01-25T13:48:41;51.77;;;14.90;;
19016;SDS011;9641;51.494;6.670;2024-01-25T13:51:09;51.80;;;14.73;;
19016;SDS011;9641;51.494;6.670;2024-01-25T13:53:36;47.73;;;14.17;;
19016;SDS011;9641;51.494;6.670;2024-01-25T13:56:04;55.57;;;15.03;;
19016;SDS011;9641;51.494;6.670;2024-01-25T13:58:31;56.00;;;15.43;;
19016;SDS011;9641;51.494;6.670;2024-01-25T14:00:58;52.90;;;15.37;;
19016;SDS011;9641;51.494;6.670;2024-01-25T14:03:25;53.47;;;15.03;;
19016;SDS011;9641;51.494;6.670;2024-01-25T14:05:52;48.90;;;14.03;;
19016;SDS011;9641;51.494;6.670;2024-01-25T14:08:23;44.50;;;14.87;;
19016;SDS011;9641;51.494;6.670;2024-01-25T14:10:49;49.83;;;14.20;;
19016;SDS011;9641;51.494;6.670;2024-01-25T14:13:16;42.53;;;14.77;;
19016;SDS011;9641;51.494;6.670;2024-01-25T14:15:44;50.37;;;14.73;;
19016;SDS011;9641;51.494;6.670;2024-01-25T14:18:11;42.67;;;12.90;;
19016;SDS011;9641;51.494;6.670;2024-01-25T14:20:38;46.63;;;14.67;;
19016;SDS011;9641;51.494;6.670;2024-01-25T14:23:05;53.70;;;14.90;;
19016;SDS011;9641;51.494;6.670;2024-01-25T14:25:34;48.03;;;14.70;;
19016;SDS011;9641;51.494;6.670;2024-01-25T14:28:01;48.40;;;14.70;;
19016;SDS011;9641;51.494;6.670;2024-01-25T14:30:28;51.97;;;14.27;;
19016;SDS011;9641;51.494;6.670;2024-01-25T14:32:56;48.97;;;15.60;;
19016;SDS011;9641;51.494;6.670;2024-01-25T14:35:26;53.83;;;15.83;;
19016;SDS011;9641;51.494;6.670;2024-01-25T14:37:54;45.17;;;14.50;;
19016;SDS011;9641;51.494;6.670;2024-01-25T14:40:22;55.63;;;15.27;;
19016;SDS011;9641;51.494;6.670;2024-01-25T14:42:52;54.23;;;15.20;;
19016;SDS011;9641;51.494;6.670;2024-01-25T14:45:20;62.20;;;15.33;;